createdAt,value
2017-07-14T00:00:27.280Z,0
2017-07-14T00:01:41.390Z,0
2017-07-14T00:02:55.500Z,0
2017-07-14T00:04:11.207Z,0
2017-07-14T00:05:26.654Z,0
2017-07-14T00:06:42.130Z,0
2017-07-14T00:07:57.570Z,0
2017-07-14T00:09:13.421Z,0
2017-07-14T00:10:27.772Z,0
2017-07-14T00:11:43.238Z,0
2017-07-14T00:12:58.686Z,0
2017-07-14T00:14:14.379Z,0
2017-07-14T00:15:29.454Z,0
2017-07-14T00:16:44.927Z,0
2017-07-14T00:18:00.577Z,0
2017-07-14T00:19:16.266Z,0
2017-07-14T00:20:31.756Z,0
2017-07-14T00:21:46.847Z,0
2017-07-14T00:23:02.323Z,0
2017-07-14T00:24:17.998Z,0
2017-07-14T00:25:33.434Z,0
2017-07-14T00:26:48.919Z,0
2017-07-14T00:28:04.364Z,0
2017-07-14T00:29:20.272Z,0
2017-07-14T00:30:35.892Z,0
2017-07-14T00:31:51.473Z,0
2017-07-14T00:33:07.118Z,0
2017-07-14T00:34:23.119Z,0
2017-07-14T00:35:38.586Z,0
2017-07-14T00:36:53.991Z,0
2017-07-14T00:38:08.152Z,0
2017-07-14T00:39:23.880Z,0
2017-07-14T00:40:39.354Z,0
2017-07-14T00:41:54.798Z,0
2017-07-14T00:43:10.242Z,0
2017-07-14T00:44:25.918Z,0
2017-07-14T00:45:41.508Z,0
2017-07-14T00:46:56.996Z,0
2017-07-14T00:48:26.026Z,0
2017-07-14T00:49:41.753Z,0
2017-07-14T00:50:57.177Z,0
2017-07-14T00:52:13.054Z,0
2017-07-14T00:53:28.507Z,0
2017-07-14T00:54:44.173Z,0
2017-07-14T00:55:59.645Z,0
2017-07-14T00:57:15.085Z,0
2017-07-14T00:58:30.553Z,0
2017-07-14T00:59:45.089Z,0
2017-07-14T01:01:00.709Z,0
2017-07-14T01:02:16.188Z,0
2017-07-14T01:03:31.244Z,0
2017-07-14T01:04:47.073Z,0
2017-07-14T01:06:02.542Z,0
2017-07-14T01:07:17.972Z,0
2017-07-14T01:08:33.349Z,0
2017-07-14T01:09:49.017Z,0
2017-07-14T01:11:04.585Z,0
2017-07-14T01:12:20.207Z,0
2017-07-14T01:13:34.305Z,0
2017-07-14T01:14:50.013Z,0
2017-07-14T01:16:05.060Z,0
2017-07-14T01:17:20.152Z,0
2017-07-14T01:18:34.293Z,0
2017-07-14T01:19:50.049Z,0
2017-07-14T01:21:05.511Z,0
2017-07-14T01:22:20.966Z,0
2017-07-14T01:23:36.437Z,0
2017-07-14T01:24:52.106Z,0
2017-07-14T01:26:07.525Z,0
2017-07-14T01:27:23.164Z,0
2017-07-14T01:28:38.573Z,0
2017-07-14T01:29:54.463Z,0
2017-07-14T01:31:09.942Z,0
2017-07-14T01:32:24.164Z,0
2017-07-14T01:33:39.583Z,0
2017-07-14T01:34:55.270Z,0
2017-07-14T01:36:10.937Z,0
2017-07-14T01:37:26.382Z,0
2017-07-14T01:38:41.936Z,0
2017-07-14T01:39:57.628Z,0
2017-07-14T01:41:13.110Z,0
2017-07-14T01:42:28.553Z,0
2017-07-14T01:43:43.978Z,0
2017-07-14T01:44:59.926Z,0
2017-07-14T01:46:15.484Z,0
2017-07-14T01:47:31.187Z,0
2017-07-14T01:48:46.618Z,0
2017-07-14T01:50:02.333Z,0
2017-07-14T01:51:17.777Z,0
2017-07-14T01:52:33.317Z,0
2017-07-14T01:53:47.442Z,0
2017-07-14T01:55:03.179Z,0
2017-07-14T01:56:18.631Z,0
2017-07-14T01:57:34.076Z,0
2017-07-14T01:58:49.443Z,0
2017-07-14T02:00:05.771Z,0
2017-07-14T02:01:21.226Z,0
2017-07-14T02:02:36.654Z,0
2017-07-14T02:03:52.149Z,0
2017-07-14T02:05:07.889Z,0
2017-07-14T02:06:22.025Z,0
2017-07-14T02:07:37.440Z,0
2017-07-14T02:08:53.108Z,0
2017-07-14T02:10:08.832Z,0
2017-07-14T02:11:37.875Z,0
2017-07-14T02:12:53.405Z,0
2017-07-14T02:14:09.036Z,0
2017-07-14T02:15:24.767Z,0
2017-07-14T02:16:40.183Z,0
2017-07-14T02:17:55.649Z,0
2017-07-14T02:19:11.190Z,0
2017-07-14T02:20:27.326Z,0
2017-07-14T02:21:42.783Z,0
2017-07-14T02:22:58.209Z,0
2017-07-14T02:24:13.627Z,0
2017-07-14T02:26:00.127Z,0
2017-07-14T02:27:15.585Z,0
2017-07-14T02:28:31.027Z,0
2017-07-14T02:29:46.514Z,0
2017-07-14T02:31:02.190Z,0
2017-07-14T02:32:17.630Z,0
2017-07-14T02:33:32.676Z,0
2017-07-14T02:34:48.279Z,0
2017-07-14T02:36:04.002Z,0
2017-07-14T02:37:18.164Z,0
2017-07-14T02:38:33.607Z,0
2017-07-14T02:39:47.768Z,0
2017-07-14T02:41:03.410Z,0
2017-07-14T02:42:19.296Z,0
2017-07-14T02:43:33.457Z,0
2017-07-14T02:44:48.531Z,0
2017-07-14T02:46:35.242Z,0
2017-07-14T02:47:50.650Z,0
2017-07-14T02:49:06.070Z,0
2017-07-14T02:50:21.533Z,0
2017-07-14T02:51:37.284Z,0
2017-07-14T02:52:51.404Z,0
2017-07-14T02:54:06.807Z,0
2017-07-14T02:55:22.229Z,0
2017-07-14T02:56:36.643Z,0
2017-07-14T02:57:52.134Z,0
2017-07-14T02:59:07.574Z,0
2017-07-14T03:00:23.037Z,0
2017-07-14T03:01:38.937Z,0
2017-07-14T03:02:53.313Z,0
2017-07-14T03:04:08.811Z,0
2017-07-14T03:05:24.241Z,5
2017-07-14T03:06:39.926Z,5
2017-07-14T03:07:55.385Z,5
2017-07-14T03:09:10.918Z,5
2017-07-14T03:10:26.369Z,5
2017-07-14T03:11:42.122Z,5
2017-07-14T03:12:56.314Z,5
2017-07-14T03:14:11.925Z,5
2017-07-14T03:15:26.031Z,5
2017-07-14T03:16:41.733Z,5
2017-07-14T03:17:57.197Z,5
2017-07-14T03:19:12.657Z,5
2017-07-14T03:20:28.109Z,5
2017-07-14T03:21:43.865Z,10
2017-07-14T03:22:59.302Z,10
2017-07-14T03:24:14.750Z,10
2017-07-14T03:25:30.215Z,10
2017-07-14T03:26:46.073Z,10
2017-07-14T03:28:01.501Z,15
2017-07-14T03:29:16.905Z,15
2017-07-14T03:30:31.048Z,15
2017-07-14T03:31:46.691Z,20
2017-07-14T03:33:02.122Z,20
2017-07-14T03:34:17.543Z,20
2017-07-14T03:35:33.215Z,20
2017-07-14T03:36:47.460Z,25
2017-07-14T03:38:01.475Z,25
2017-07-14T03:39:16.867Z,25
2017-07-14T03:40:32.308Z,30
2017-07-14T03:41:48.009Z,30
2017-07-14T03:43:02.131Z,30
2017-07-14T03:44:17.586Z,30
2017-07-14T03:45:33.092Z,30
2017-07-14T03:46:48.785Z,30
2017-07-14T03:48:04.250Z,30
2017-07-14T03:49:19.715Z,30
2017-07-14T03:50:35.220Z,35
2017-07-14T03:51:49.434Z,35
2017-07-14T03:53:35.385Z,40
2017-07-14T03:54:50.798Z,40
2017-07-14T03:56:06.210Z,45
2017-07-14T03:57:21.848Z,55
2017-07-14T03:58:37.307Z,60
2017-07-14T03:59:52.691Z,65
2017-07-14T04:01:06.694Z,70
2017-07-14T04:02:22.643Z,75
2017-07-14T04:03:38.092Z,80
2017-07-14T04:04:53.843Z,80
2017-07-14T04:06:09.452Z,80
2017-07-14T04:07:25.156Z,80
2017-07-14T04:08:40.226Z,80
2017-07-14T04:09:55.674Z,75
2017-07-14T04:11:09.694Z,75
2017-07-14T04:12:25.438Z,70
2017-07-14T04:13:40.890Z,75
2017-07-14T04:14:56.305Z,75
2017-07-14T04:16:11.753Z,75
2017-07-14T04:17:27.461Z,75
2017-07-14T04:18:42.895Z,80
2017-07-14T04:19:58.380Z,90
2017-07-14T04:21:13.838Z,100
2017-07-14T04:22:29.535Z,110
2017-07-14T04:23:44.962Z,115
2017-07-14T04:25:00.412Z,120
2017-07-14T04:26:15.836Z,120
2017-07-14T04:27:32.011Z,125
2017-07-14T04:28:47.531Z,130
2017-07-14T04:30:01.667Z,135
2017-07-14T04:31:17.323Z,135
2017-07-14T04:32:32.990Z,140
2017-07-14T04:33:48.424Z,140
2017-07-14T04:35:03.892Z,140
2017-07-14T04:36:19.331Z,140
2017-07-14T04:37:34.667Z,145
2017-07-14T04:38:50.053Z,145
2017-07-14T04:40:04.206Z,150
2017-07-14T04:41:18.346Z,150
2017-07-14T04:42:34.195Z,160
2017-07-14T04:43:49.909Z,155
2017-07-14T04:45:05.538Z,155
2017-07-14T04:46:20.998Z,165
2017-07-14T04:47:36.640Z,170
2017-07-14T04:48:52.075Z,170
2017-07-14T04:50:07.557Z,175
2017-07-14T04:51:23.019Z,175
2017-07-14T04:52:38.336Z,185
2017-07-14T04:53:53.979Z,190
2017-07-14T04:55:09.474Z,200
2017-07-14T04:56:24.909Z,205
2017-07-14T04:57:40.624Z,210
2017-07-14T04:58:56.022Z,215
2017-07-14T05:00:11.473Z,215
2017-07-14T05:01:27.114Z,220
2017-07-14T05:02:42.458Z,220
2017-07-14T05:03:57.920Z,220
2017-07-14T05:05:13.375Z,220
2017-07-14T05:06:28.875Z,220
2017-07-14T05:07:44.569Z,220
2017-07-14T05:08:58.662Z,215
2017-07-14T05:10:14.282Z,230
2017-07-14T05:11:29.755Z,235
2017-07-14T05:12:45.462Z,250
2017-07-14T05:14:01.028Z,265
2017-07-14T05:15:16.446Z,270
2017-07-14T05:16:31.881Z,280
2017-07-14T05:17:47.597Z,290
2017-07-14T05:19:03.175Z,295
2017-07-14T05:20:17.339Z,305
2017-07-14T05:21:32.984Z,310
2017-07-14T05:22:48.636Z,315
2017-07-14T05:24:04.096Z,325
2017-07-14T05:25:19.709Z,340
2017-07-14T05:26:35.168Z,340
2017-07-14T05:27:50.834Z,340
2017-07-14T05:29:06.455Z,340
2017-07-14T05:30:22.090Z,330
2017-07-14T05:31:37.555Z,330
2017-07-14T05:32:53.267Z,315
2017-07-14T05:34:08.762Z,305
2017-07-14T05:35:24.227Z,290
2017-07-14T05:36:39.673Z,280
2017-07-14T05:37:55.523Z,270
2017-07-14T05:39:08.340Z,260
2017-07-14T05:40:23.832Z,250
2017-07-14T05:41:39.305Z,235
2017-07-14T05:42:54.990Z,235
2017-07-14T05:44:09.019Z,215
2017-07-14T05:45:24.471Z,205
2017-07-14T05:46:40.108Z,200
2017-07-14T05:47:55.833Z,200
2017-07-14T05:49:11.255Z,195
2017-07-14T05:50:26.741Z,190
2017-07-14T05:51:42.203Z,190
2017-07-14T05:52:57.930Z,190
2017-07-14T05:54:12.363Z,195
2017-07-14T05:55:27.834Z,205
2017-07-14T05:56:43.383Z,210
2017-07-14T05:57:59.075Z,215
2017-07-14T05:59:13.205Z,225
2017-07-14T06:00:28.742Z,235
2017-07-14T06:01:43.831Z,240
2017-07-14T06:02:59.510Z,240
2017-07-14T06:04:15.011Z,265
2017-07-14T06:05:30.505Z,270
2017-07-14T06:06:45.944Z,280
2017-07-14T06:08:00.447Z,300
2017-07-14T06:09:15.930Z,315
2017-07-14T06:10:31.433Z,330
2017-07-14T06:11:47.045Z,335
2017-07-14T06:13:02.721Z,345
2017-07-14T06:14:18.282Z,365
2017-07-14T06:15:32.416Z,345
2017-07-14T06:16:47.837Z,365
2017-07-14T06:18:03.528Z,380
2017-07-14T06:19:18.979Z,400
2017-07-14T06:20:31.767Z,425
2017-07-14T06:21:47.226Z,470
2017-07-14T06:23:02.963Z,505
2017-07-14T06:24:18.427Z,530
2017-07-14T06:25:33.895Z,535
2017-07-14T06:26:49.306Z,555
2017-07-14T06:28:03.834Z,560
2017-07-14T06:29:19.425Z,585
2017-07-14T06:30:34.968Z,565
2017-07-14T06:31:50.403Z,555
2017-07-14T06:33:06.109Z,550
2017-07-14T06:34:20.327Z,515
2017-07-14T06:35:35.784Z,490
2017-07-14T06:36:51.231Z,475
2017-07-14T06:38:07.139Z,445
2017-07-14T06:39:22.807Z,435
2017-07-14T06:40:38.260Z,415
2017-07-14T06:41:53.821Z,400
2017-07-14T06:43:09.528Z,360
2017-07-14T06:44:24.967Z,330
2017-07-14T06:45:40.435Z,315
2017-07-14T06:46:55.871Z,295
2017-07-14T06:48:11.771Z,275
2017-07-14T06:49:27.379Z,250
2017-07-14T06:50:42.871Z,250
2017-07-14T06:51:58.324Z,275
2017-07-14T06:53:14.257Z,300
2017-07-14T06:54:29.684Z,335
2017-07-14T06:55:43.842Z,375
2017-07-14T06:56:59.306Z,420
2017-07-14T06:58:14.963Z,450
2017-07-14T06:59:29.186Z,485
2017-07-14T07:00:44.635Z,520
2017-07-14T07:02:00.289Z,540
2017-07-14T07:03:16.009Z,525
2017-07-14T07:04:31.433Z,510
2017-07-14T07:05:45.427Z,510
2017-07-14T07:07:00.859Z,530
2017-07-14T07:08:16.879Z,540
2017-07-14T07:09:46.053Z,570
2017-07-14T07:11:01.500Z,570
2017-07-14T07:12:16.944Z,580
2017-07-14T07:13:32.734Z,610
2017-07-14T07:14:48.151Z,630
2017-07-14T07:16:17.181Z,645
2017-07-14T07:17:32.849Z,650
2017-07-14T07:18:48.690Z,645
2017-07-14T07:20:04.167Z,620
2017-07-14T07:21:19.706Z,615
2017-07-14T07:22:35.109Z,595
2017-07-14T07:23:50.814Z,550
2017-07-14T07:25:06.275Z,505
2017-07-14T07:26:21.976Z,450
2017-07-14T07:27:37.427Z,410
2017-07-14T07:28:53.119Z,365
2017-07-14T07:30:08.577Z,330
2017-07-14T07:31:22.802Z,320
2017-07-14T07:32:38.215Z,310
2017-07-14T07:33:54.135Z,300
2017-07-14T07:35:09.568Z,300
2017-07-14T07:36:25.021Z,315
2017-07-14T07:37:39.198Z,340
2017-07-14T07:38:55.278Z,385
2017-07-14T07:40:10.711Z,455
2017-07-14T07:41:26.271Z,520
2017-07-14T07:42:41.775Z,560
2017-07-14T07:43:57.411Z,550
2017-07-14T07:45:11.562Z,535
2017-07-14T07:46:27.021Z,510
2017-07-14T07:47:42.430Z,505
2017-07-14T07:48:58.355Z,510
2017-07-14T07:50:13.770Z,550
2017-07-14T07:51:29.514Z,590
2017-07-14T07:52:44.905Z,600
2017-07-14T07:54:00.586Z,585
2017-07-14T07:55:46.875Z,550
2017-07-14T07:57:02.342Z,535
2017-07-14T07:58:17.805Z,500
2017-07-14T07:59:32.221Z,480
2017-07-14T08:00:46.350Z,495
2017-07-14T08:02:01.759Z,490
2017-07-14T08:03:17.569Z,495
2017-07-14T08:04:33.249Z,510
2017-07-14T08:05:48.641Z,550
2017-07-14T08:07:02.777Z,575
2017-07-14T08:08:18.175Z,590
2017-07-14T08:09:33.840Z,625
2017-07-14T08:10:48.926Z,660
2017-07-14T08:12:04.562Z,705
2017-07-14T08:13:18.846Z,720
2017-07-14T08:14:34.627Z,740
2017-07-14T08:15:48.755Z,735
2017-07-14T08:17:04.207Z,740
2017-07-14T08:18:19.862Z,805
2017-07-14T08:19:35.593Z,800
2017-07-14T08:20:51.118Z,825
2017-07-14T08:22:06.766Z,860
2017-07-14T08:23:22.336Z,880
2017-07-14T08:24:38.046Z,880
2017-07-14T08:25:53.510Z,875
2017-07-14T08:27:08.994Z,810
2017-07-14T08:28:24.089Z,765
2017-07-14T08:29:39.796Z,750
2017-07-14T08:30:52.647Z,730
2017-07-14T08:32:08.177Z,700
2017-07-14T08:33:24.023Z,690
2017-07-14T08:34:39.772Z,670
2017-07-14T08:35:55.174Z,520
2017-07-14T08:37:10.663Z,465
2017-07-14T08:38:26.442Z,435
2017-07-14T08:39:42.179Z,440
2017-07-14T08:40:57.639Z,465
2017-07-14T08:42:11.794Z,520
2017-07-14T08:43:27.477Z,550
2017-07-14T08:44:42.774Z,525
2017-07-14T08:45:58.274Z,545
2017-07-14T08:47:11.107Z,600
2017-07-14T08:48:26.581Z,1485
2017-07-14T08:49:42.269Z,525
2017-07-14T08:50:57.731Z,555
2017-07-14T08:52:13.418Z,625
2017-07-14T08:53:28.886Z,700
2017-07-14T08:54:44.584Z,3260
2017-07-14T08:55:58.749Z,2650
2017-07-14T08:57:14.197Z,710
2017-07-14T08:58:28.247Z,2565
2017-07-14T08:59:42.686Z,740
2017-07-14T09:00:58.160Z,805
2017-07-14T09:02:13.599Z,835
2017-07-14T09:03:29.038Z,3295
2017-07-14T09:04:44.746Z,3095
2017-07-14T09:06:00.226Z,1215
2017-07-14T09:07:15.949Z,3120
2017-07-14T09:08:30.085Z,3195
2017-07-14T09:09:45.855Z,3590
2017-07-14T09:11:01.485Z,3435
2017-07-14T09:12:16.948Z,3330
2017-07-14T09:13:32.376Z,3030
2017-07-14T09:14:48.070Z,3060
2017-07-14T09:16:03.532Z,3275
2017-07-14T09:17:18.990Z,3500
2017-07-14T09:18:34.483Z,3530
2017-07-14T09:19:50.184Z,3610
2017-07-14T09:21:05.581Z,3690
2017-07-14T09:22:21.095Z,1795
2017-07-14T09:23:36.593Z,1025
2017-07-14T09:24:52.261Z,1005
2017-07-14T09:26:07.706Z,1005
2017-07-14T09:27:20.565Z,1105
2017-07-14T09:28:36.242Z,3555
2017-07-14T09:29:51.724Z,3425
2017-07-14T09:31:07.425Z,3420
2017-07-14T09:32:22.905Z,775
2017-07-14T09:33:38.557Z,850
2017-07-14T09:34:52.709Z,920
2017-07-14T09:36:08.401Z,3405
2017-07-14T09:37:23.890Z,855
2017-07-14T09:38:39.349Z,890
2017-07-14T09:39:54.832Z,895
2017-07-14T09:41:09.211Z,925
2017-07-14T09:42:24.706Z,1565
2017-07-14T09:43:38.926Z,3755
2017-07-14T09:44:54.028Z,3630
2017-07-14T09:46:09.773Z,3720
2017-07-14T09:47:25.247Z,3500
2017-07-14T09:48:40.932Z,2375
2017-07-14T09:49:56.466Z,970
2017-07-14T09:51:10.900Z,925
2017-07-14T09:52:24.929Z,875
2017-07-14T09:53:40.590Z,920
2017-07-14T09:54:56.105Z,955
2017-07-14T09:56:11.894Z,1460
2017-07-14T09:57:27.348Z,750
2017-07-14T09:58:42.843Z,730
2017-07-14T09:59:58.269Z,730
2017-07-14T10:01:14.043Z,790
2017-07-14T10:02:29.615Z,915
2017-07-14T10:03:45.316Z,995
2017-07-14T10:05:00.821Z,2245
2017-07-14T10:06:17.134Z,1135
2017-07-14T10:07:32.834Z,1150
2017-07-14T10:08:48.291Z,3860
2017-07-14T10:10:02.493Z,1210
2017-07-14T10:11:18.307Z,1435
2017-07-14T10:12:33.766Z,1235
2017-07-14T10:13:49.426Z,830
2017-07-14T10:15:04.908Z,675
2017-07-14T10:16:20.587Z,630
2017-07-14T10:17:36.250Z,685
2017-07-14T10:18:51.711Z,750
2017-07-14T10:20:07.889Z,890
2017-07-14T10:21:23.628Z,2075
2017-07-14T10:22:38.683Z,1195
2017-07-14T10:23:52.857Z,2090
2017-07-14T10:25:08.286Z,1700
2017-07-14T10:26:24.219Z,1320
2017-07-14T10:27:39.660Z,1245
2017-07-14T10:28:55.109Z,1185
2017-07-14T10:30:10.556Z,1175
2017-07-14T10:31:26.285Z,1350
2017-07-14T10:32:40.446Z,1530
2017-07-14T10:33:55.958Z,1630
2017-07-14T10:35:11.528Z,1520
2017-07-14T10:36:27.249Z,1505
2017-07-14T10:37:42.887Z,1490
2017-07-14T10:38:58.365Z,2245
2017-07-14T10:40:12.465Z,1505
2017-07-14T10:41:28.211Z,1575
2017-07-14T10:42:43.868Z,1335
2017-07-14T10:43:59.338Z,1225
2017-07-14T10:45:14.821Z,1335
2017-07-14T10:46:30.529Z,1635
2017-07-14T10:47:45.986Z,1075
2017-07-14T10:48:59.792Z,1430
2017-07-14T10:50:15.496Z,1025
2017-07-14T10:51:31.211Z,925
2017-07-14T10:52:46.685Z,810
2017-07-14T10:54:02.250Z,690
2017-07-14T10:55:17.718Z,600
2017-07-14T10:56:33.676Z,510
2017-07-14T10:57:49.352Z,450
2017-07-14T10:59:04.419Z,410
2017-07-14T11:00:19.917Z,380
2017-07-14T11:01:35.820Z,375
2017-07-14T11:02:51.490Z,385
2017-07-14T11:04:07.194Z,395
2017-07-14T11:05:22.671Z,410
2017-07-14T11:06:38.369Z,450
2017-07-14T11:07:54.097Z,530
2017-07-14T11:09:09.556Z,635
2017-07-14T11:10:25.003Z,785
2017-07-14T11:11:41.019Z,990
2017-07-14T11:12:56.465Z,1280
2017-07-14T11:14:11.958Z,985
2017-07-14T11:15:27.415Z,850
2017-07-14T11:16:43.132Z,765
2017-07-14T11:17:58.627Z,700
2017-07-14T11:19:14.096Z,815
2017-07-14T11:21:59.324Z,795
2017-07-14T11:23:14.738Z,785
2017-07-14T11:24:30.204Z,815
2017-07-14T11:25:45.929Z,935
2017-07-14T11:27:01.321Z,985
2017-07-14T11:28:16.398Z,935
2017-07-14T11:29:31.891Z,960
2017-07-14T11:30:47.004Z,930
2017-07-14T11:32:02.717Z,940
2017-07-14T11:33:18.165Z,960
2017-07-14T11:34:33.744Z,995
2017-07-14T11:35:49.172Z,1140
2017-07-14T11:37:04.913Z,2055
2017-07-14T11:38:19.077Z,1615
2017-07-14T11:39:34.590Z,1920
2017-07-14T11:40:50.079Z,1655
2017-07-14T11:42:05.838Z,1635
2017-07-14T11:43:20.029Z,2005
2017-07-14T11:44:35.472Z,4395
2017-07-14T11:45:51.190Z,2155
2017-07-14T11:47:06.895Z,1670
2017-07-14T11:48:22.561Z,1510
2017-07-14T11:49:38.045Z,1570
2017-07-14T11:50:53.490Z,1765
2017-07-14T11:52:09.299Z,4270
2017-07-14T11:53:24.830Z,1930
2017-07-14T11:54:40.727Z,4515
2017-07-14T11:55:56.339Z,5095
2017-07-14T11:57:12.100Z,3845
2017-07-14T11:58:27.604Z,5100
2017-07-14T11:59:43.100Z,4800
2017-07-14T12:00:58.615Z,4365
2017-07-14T12:02:14.492Z,3295
2017-07-14T12:03:30.316Z,1610
2017-07-14T12:04:45.756Z,4105
2017-07-14T12:06:01.240Z,4330
2017-07-14T12:07:17.172Z,4395
2017-07-14T12:08:32.696Z,4290
2017-07-14T12:10:07.969Z,3895
2017-07-14T12:11:23.466Z,3455
2017-07-14T12:12:39.241Z,3575
2017-07-14T12:13:54.956Z,3405
2017-07-14T12:15:10.483Z,3070
2017-07-14T12:16:26.202Z,3595
2017-07-14T12:17:41.964Z,3705
2017-07-14T12:18:57.470Z,3775
2017-07-14T12:20:12.992Z,975
2017-07-14T12:21:28.683Z,1045
2017-07-14T12:22:43.535Z,1380
2017-07-14T12:23:59.127Z,2790
2017-07-14T12:25:14.603Z,1435
2017-07-14T12:26:30.092Z,3865
2017-07-14T12:27:46.014Z,3700
2017-07-14T12:29:01.229Z,1675
2017-07-14T12:30:17.031Z,1245
2017-07-14T12:31:31.348Z,1485
2017-07-14T12:32:47.103Z,1405
2017-07-14T12:34:02.318Z,1275
2017-07-14T12:35:16.582Z,1305
2017-07-14T12:36:32.036Z,1825
2017-07-14T12:37:47.957Z,4010
2017-07-14T12:39:03.405Z,955
2017-07-14T12:40:17.558Z,790
2017-07-14T12:41:33.249Z,765
2017-07-14T12:42:47.577Z,715
2017-07-14T12:44:03.099Z,720
2017-07-14T12:45:18.590Z,800
2017-07-14T12:46:32.928Z,930
2017-07-14T12:47:48.669Z,1040
2017-07-14T12:49:04.143Z,1965
2017-07-14T12:50:19.577Z,3270
2017-07-14T12:51:35.197Z,3750
2017-07-14T12:52:50.901Z,3865
2017-07-14T12:54:06.387Z,4095
2017-07-14T12:55:21.994Z,1845
2017-07-14T12:56:37.648Z,2430
2017-07-14T12:57:53.368Z,3160
2017-07-14T12:59:09.115Z,1205
2017-07-14T13:00:24.654Z,3905
2017-07-14T13:01:40.204Z,4010
2017-07-14T13:02:55.992Z,3840
2017-07-14T13:04:11.467Z,3695
2017-07-14T13:05:27.145Z,3670
2017-07-14T13:06:42.648Z,3905
2017-07-14T13:07:58.381Z,4170
2017-07-14T13:09:13.872Z,4315
2017-07-14T13:10:29.296Z,4235
2017-07-14T13:11:44.781Z,3945
2017-07-14T13:13:00.558Z,3535
2017-07-14T13:14:16.023Z,2575
2017-07-14T13:15:31.606Z,1185
2017-07-14T13:16:47.963Z,1000
2017-07-14T13:18:04.260Z,975
2017-07-14T13:19:20.146Z,940
2017-07-14T13:20:35.625Z,830
2017-07-14T13:21:51.213Z,735
2017-07-14T13:23:06.932Z,690
2017-07-14T13:24:22.387Z,670
2017-07-14T13:25:37.537Z,665
2017-07-14T13:26:53.032Z,680
2017-07-14T13:28:08.716Z,685
2017-07-14T13:29:24.212Z,735
2017-07-14T13:30:39.940Z,2765
2017-07-14T13:31:55.556Z,3460
2017-07-14T13:33:14.627Z,850
2017-07-14T13:34:30.121Z,730
2017-07-14T13:35:45.836Z,675
2017-07-14T13:36:59.969Z,630
2017-07-14T13:38:14.783Z,545
2017-07-14T13:39:30.863Z,495
2017-07-14T13:40:49.437Z,435
2017-07-14T13:42:05.954Z,385
2017-07-14T13:43:23.046Z,340
2017-07-14T13:44:39.363Z,305
2017-07-14T13:45:56.017Z,285
2017-07-14T13:47:12.345Z,275
2017-07-14T13:48:56.305Z,270
2017-07-14T13:50:13.055Z,280
2017-07-14T13:51:29.895Z,300
2017-07-14T13:52:46.213Z,340
2017-07-14T13:54:01.917Z,405
2017-07-14T13:55:18.072Z,445
2017-07-14T13:56:34.893Z,525
2017-07-14T13:57:53.074Z,600
2017-07-14T13:59:37.208Z,2520
2017-07-14T14:00:53.655Z,865
2017-07-14T14:02:09.545Z,890
2017-07-14T14:03:28.213Z,1005
2017-07-14T14:04:45.991Z,1025
2017-07-14T14:06:02.318Z,1240
2017-07-14T14:07:21.127Z,1095
2017-07-14T14:08:35.686Z,1085
2017-07-14T14:09:53.700Z,1010
2017-07-14T14:11:09.241Z,1050
2017-07-14T14:12:24.733Z,2805
2017-07-14T14:13:40.240Z,1035
2017-07-14T14:14:56.053Z,1535
2017-07-14T14:16:42.430Z,2120
2017-07-14T14:17:58.021Z,765
2017-07-14T14:19:26.937Z,740
2017-07-14T14:20:42.744Z,730
2017-07-14T14:21:56.970Z,775
2017-07-14T14:23:12.486Z,1445
2017-07-14T14:24:27.995Z,2850
2017-07-14T14:25:43.752Z,1175
2017-07-14T14:26:59.185Z,1050
2017-07-14T14:28:13.197Z,915
2017-07-14T14:29:28.722Z,770
2017-07-14T14:30:44.461Z,650
2017-07-14T14:31:59.981Z,565
2017-07-14T14:33:15.461Z,515
2017-07-14T14:34:30.957Z,510
2017-07-14T14:35:46.661Z,510
2017-07-14T14:37:00.716Z,525
2017-07-14T14:38:16.253Z,540
2017-07-14T14:41:01.451Z,570
2017-07-14T14:42:15.604Z,630
2017-07-14T14:43:31.064Z,705
2017-07-14T14:44:45.116Z,940
2017-07-14T14:46:00.967Z,1765
2017-07-14T14:47:15.174Z,1655
2017-07-14T14:48:30.671Z,840
2017-07-14T14:49:46.173Z,810
2017-07-14T14:51:01.479Z,730
2017-07-14T14:52:16.932Z,685
2017-07-14T14:53:32.406Z,605
2017-07-14T14:54:47.913Z,590
2017-07-14T14:56:03.274Z,595
2017-07-14T14:57:18.755Z,585
2017-07-14T14:58:33.862Z,575
2017-07-14T14:59:48.057Z,515
2017-07-14T15:01:03.793Z,470
2017-07-14T15:02:19.227Z,440
2017-07-14T15:03:34.718Z,430
2017-07-14T15:04:50.428Z,410
2017-07-14T15:06:04.982Z,425
2017-07-14T15:07:20.506Z,1830
2017-07-14T15:08:35.991Z,605
2017-07-14T15:09:51.459Z,1350
2017-07-14T15:11:07.245Z,1420
2017-07-14T15:12:22.827Z,1700
2017-07-14T15:13:38.277Z,630
2017-07-14T15:14:53.749Z,1120
2017-07-14T15:16:09.625Z,680
2017-07-14T15:17:25.074Z,610
2017-07-14T15:18:40.533Z,590
2017-07-14T15:19:56.321Z,570
2017-07-14T15:21:12.040Z,550
2017-07-14T15:22:27.551Z,510
2017-07-14T15:23:43.052Z,465
2017-07-14T15:24:57.240Z,430
2017-07-14T15:26:12.981Z,400
2017-07-14T15:27:28.515Z,390
2017-07-14T15:28:44.005Z,395
2017-07-14T15:29:59.582Z,400
2017-07-14T15:31:15.656Z,395
2017-07-14T15:32:31.126Z,380
2017-07-14T15:33:46.641Z,360
2017-07-14T15:35:02.087Z,350
2017-07-14T15:36:17.825Z,340
2017-07-14T15:37:33.119Z,330
2017-07-14T15:38:48.760Z,320
2017-07-14T15:40:04.462Z,320
2017-07-14T15:41:20.221Z,320
2017-07-14T15:42:34.214Z,330
2017-07-14T15:43:49.698Z,340
2017-07-14T15:45:03.953Z,345
2017-07-14T15:46:19.787Z,345
2017-07-14T15:47:35.196Z,340
2017-07-14T15:48:50.666Z,340
2017-07-14T15:50:06.215Z,340
2017-07-14T15:51:21.976Z,350
2017-07-14T15:52:37.532Z,360
2017-07-14T15:53:51.667Z,380
2017-07-14T15:55:07.156Z,470
2017-07-14T15:56:23.038Z,505
2017-07-14T15:57:38.512Z,555
2017-07-14T15:58:54.009Z,590
2017-07-14T16:00:09.488Z,630
2017-07-14T16:01:25.207Z,640
2017-07-14T16:02:40.658Z,635
2017-07-14T16:03:56.324Z,610
2017-07-14T16:05:11.771Z,580
2017-07-14T16:06:27.516Z,535
2017-07-14T16:07:43.020Z,495
2017-07-14T16:08:58.639Z,460
2017-07-14T16:10:14.095Z,435
2017-07-14T16:11:30.037Z,415
2017-07-14T16:12:45.692Z,400
2017-07-14T16:14:00.787Z,395
2017-07-14T16:15:16.092Z,340
2017-07-14T16:16:31.872Z,360
2017-07-14T16:17:47.377Z,360
2017-07-14T16:19:02.813Z,340
2017-07-14T16:20:32.082Z,295
2017-07-14T16:21:47.831Z,275
2017-07-14T16:23:03.310Z,260
2017-07-14T16:24:18.730Z,250
2017-07-14T16:25:34.154Z,245
2017-07-14T16:26:49.939Z,235
2017-07-14T16:28:05.650Z,230
2017-07-14T16:29:21.155Z,235
2017-07-14T16:30:36.848Z,245
2017-07-14T16:31:52.607Z,260
2017-07-14T16:33:08.247Z,280
2017-07-14T16:34:23.788Z,290
2017-07-14T16:35:39.250Z,285
2017-07-14T16:36:54.955Z,285
2017-07-14T16:38:10.414Z,280
2017-07-14T16:39:25.837Z,290
2017-07-14T16:40:40.950Z,305
2017-07-14T16:41:56.844Z,315
2017-07-14T16:43:12.331Z,320
2017-07-14T16:44:27.764Z,325
2017-07-14T16:45:43.242Z,340
2017-07-14T16:46:58.992Z,345
2017-07-14T16:48:13.026Z,325
2017-07-14T16:49:28.531Z,300
2017-07-14T16:50:43.931Z,290
2017-07-14T16:51:59.760Z,285
2017-07-14T16:53:15.789Z,290
2017-07-14T16:54:31.413Z,295
2017-07-14T16:55:46.826Z,295
2017-07-14T16:57:01.232Z,295
2017-07-14T16:58:16.719Z,295
2017-07-14T16:59:32.186Z,290
2017-07-14T17:00:47.677Z,295
2017-07-14T17:02:03.406Z,300
2017-07-14T17:03:18.858Z,305
2017-07-14T17:04:34.370Z,295
2017-07-14T17:05:49.860Z,275
2017-07-14T17:07:05.597Z,255
2017-07-14T17:08:21.229Z,225
2017-07-14T17:09:36.750Z,205
2017-07-14T17:10:52.181Z,185
2017-07-14T17:12:08.022Z,175
2017-07-14T17:13:23.509Z,175
2017-07-14T17:14:39.014Z,175
2017-07-14T17:15:54.516Z,175
2017-07-14T17:17:10.203Z,175
2017-07-14T17:18:25.644Z,175
2017-07-14T17:19:41.195Z,180
2017-07-14T17:20:56.643Z,180
2017-07-14T17:22:12.392Z,185
2017-07-14T17:23:58.697Z,195
2017-07-14T17:25:14.107Z,195
2017-07-14T17:26:29.573Z,190
2017-07-14T17:27:57.592Z,185
2017-07-14T17:29:13.058Z,180
2017-07-14T17:30:28.646Z,180
2017-07-14T17:31:44.126Z,175
2017-07-14T17:32:59.802Z,180
2017-07-14T17:34:15.459Z,175
2017-07-14T17:35:30.955Z,175